createdAt,value
2022-09-15T00:01:34.283Z,96063.69
2022-09-15T00:04:19.658Z,96063.50
2022-09-15T00:07:04.920Z,96065.72
2022-09-15T00:09:50.447Z,96060.19
2022-09-15T00:12:35.635Z,96056.41
2022-09-15T00:15:22.140Z,96071.22
2022-09-15T00:18:07.808Z,96063.75
2022-09-15T00:20:53.438Z,96070.22
2022-09-15T00:23:39.254Z,96066.75
2022-09-15T00:26:27.244Z,96068.34
2022-09-15T00:29:13.171Z,96079.66
2022-09-15T00:31:59.089Z,96082.03
2022-09-15T00:34:44.813Z,96078.56
2022-09-15T00:37:30.040Z,96081.44
2022-09-15T00:40:15.416Z,96077.94
2022-09-15T00:43:00.663Z,96070.22
2022-09-15T00:45:46.155Z,96072.13
2022-09-15T00:48:31.752Z,96075.06
2022-09-15T00:51:22.857Z,96078.88
2022-09-15T00:54:12.907Z,96078.88
2022-09-15T00:57:08.579Z,96073.00
2022-09-15T00:59:56.755Z,96067.63
2022-09-15T01:02:44.617Z,96072.50
2022-09-15T01:05:40.524Z,96062.59
2022-09-15T01:08:42.604Z,96063.69
2022-09-15T01:11:29.029Z,96068.22
2022-09-15T01:14:14.993Z,96067.44
2022-09-15T01:17:07.032Z,96072.81
2022-09-15T01:20:20.523Z,96062.69
2022-09-15T01:23:25.153Z,96064.09
2022-09-15T01:26:32.502Z,96057.31
2022-09-15T01:29:44.629Z,96059.22
2022-09-15T01:32:54.440Z,96047.22
2022-09-15T01:35:48.181Z,96054.50
2022-09-15T01:39:03.130Z,96055.88
2022-09-15T01:41:55.308Z,96055.09
2022-09-15T01:44:45.997Z,96051.91
2022-09-15T01:47:34.088Z,96044.19
2022-09-15T01:50:27.649Z,96051.44
2022-09-15T01:53:17.794Z,96051.91
2022-09-15T01:56:08.426Z,96047.16
2022-09-15T01:58:54.345Z,96049.22
2022-09-15T02:01:51.853Z,96051.13
2022-09-15T02:04:47.041Z,96040.72
2022-09-15T02:08:05.152Z,96043.41
2022-09-15T02:11:18.448Z,96043.69
2022-09-15T02:14:17.220Z,96038.63
2022-09-15T02:17:03.016Z,96050.16
2022-09-15T02:19:56.591Z,96054.72
2022-09-15T02:22:47.573Z,96053.13
2022-09-15T02:25:37.931Z,96055.03
2022-09-15T02:28:31.200Z,96043.50
2022-09-15T02:31:20.448Z,96053.75
2022-09-15T02:34:15.116Z,96048.97
2022-09-15T02:37:01.798Z,96042.84
2022-09-15T02:39:54.619Z,96040.47
2022-09-15T02:42:40.260Z,96046.13
2022-09-15T02:45:26.897Z,96038.06
2022-09-15T02:48:13.107Z,96046.22
2022-09-15T02:50:58.661Z,96043.88
2022-09-15T02:53:45.678Z,96044.66
2022-09-15T02:56:30.976Z,96046.22
2022-09-15T02:59:16.354Z,96040.69
2022-09-15T03:02:03.437Z,96043.69
2022-09-15T03:04:49.525Z,96047.13
2022-09-15T03:07:37.197Z,96044.47
2022-09-15T03:10:24.315Z,96041.78
2022-09-15T03:13:09.884Z,96045.84
2022-09-15T03:15:55.237Z,96035.94
2022-09-15T03:18:41.677Z,96041.00
2022-09-15T03:21:29.562Z,96035.34
2022-09-15T03:24:15.359Z,96043.06
2022-09-15T03:27:01.348Z,96041.19
2022-09-15T03:29:47.071Z,96037.41
2022-09-15T03:32:32.475Z,96044.97
2022-09-15T03:35:18.202Z,96038.50
2022-09-15T03:38:04.230Z,96041.97
2022-09-15T03:41:01.723Z,96038.19
2022-09-15T03:43:47.273Z,96032.06
2022-09-15T03:46:33.726Z,96032.34
2022-09-15T03:49:19.372Z,96032.34
2022-09-15T03:52:05.258Z,96037.41
2022-09-15T03:54:50.584Z,96028.88
2022-09-15T03:57:35.983Z,96032.34
2022-09-15T04:00:22.270Z,96020.84
2022-09-15T04:03:08.804Z,96024.03
2022-09-15T04:05:54.463Z,96021.34
2022-09-15T04:08:39.864Z,96020.34
2022-09-15T04:11:25.108Z,96014.22
2022-09-15T04:14:10.469Z,96009.47
2022-09-15T04:16:55.890Z,96006.00
2022-09-15T04:19:41.679Z,96013.22
2022-09-15T04:22:31.210Z,96002.34
2022-09-15T04:25:17.155Z,96004.53
2022-09-15T04:28:02.507Z,96002.44
2022-09-15T04:30:48.012Z,96004.94
2022-09-15T04:33:33.515Z,95992.66
2022-09-15T04:36:22.615Z,95998.31
2022-09-15T04:39:08.289Z,96002.06
2022-09-15T04:41:54.763Z,96006.44
2022-09-15T04:44:40.245Z,96008.03
2022-09-15T04:47:25.798Z,96002.19
2022-09-15T04:50:11.100Z,95999.81
2022-09-15T04:52:56.729Z,95999.81
2022-09-15T04:55:42.197Z,96011.63
2022-09-15T04:58:27.473Z,95993.19
2022-09-15T05:01:19.040Z,95984.06
2022-09-15T05:04:05.081Z,96000.91
2022-09-15T05:06:50.530Z,95984.34
2022-09-15T05:09:35.791Z,95993.19
2022-09-15T05:12:21.536Z,95996.94
2022-09-15T05:15:07.927Z,96002.63
2022-09-15T05:17:53.380Z,96000.72
2022-09-15T05:20:38.815Z,95996.19
2022-09-15T05:23:24.129Z,96000.72
2022-09-15T05:26:12.718Z,96000.72
2022-09-15T05:28:58.599Z,95997.72
2022-09-15T05:31:43.918Z,96004.97
2022-09-15T05:34:29.237Z,96006.06
2022-09-15T05:37:14.430Z,96000.72
2022-09-15T05:39:59.873Z,96005.28
2022-09-15T05:42:45.576Z,96001.81
2022-09-15T05:45:31.246Z,95995.38
2022-09-15T05:48:16.582Z,95997.72
2022-09-15T05:51:02.606Z,95985.47
2022-09-15T05:53:48.352Z,95985.47
2022-09-15T05:56:33.905Z,95991.28
2022-09-15T05:59:19.340Z,95993.38
2022-09-15T06:02:04.815Z,95998.91
2022-09-15T06:04:50.226Z,96005.25
2022-09-15T06:07:36.300Z,95999.59
2022-09-15T06:10:24.682Z,95981.84
2022-09-15T06:13:10.000Z,95989.56
2022-09-15T06:16:00.880Z,95985.97
2022-09-15T06:18:48.252Z,95987.75
2022-09-15T06:21:34.051Z,95992.50
2022-09-15T06:24:19.712Z,95986.03
2022-09-15T06:27:05.220Z,95978.50
2022-09-15T06:29:50.710Z,95985.91
2022-09-15T06:32:36.846Z,95989.09
2022-09-15T06:35:22.235Z,95989.88
2022-09-15T06:38:08.496Z,95987.19
2022-09-15T06:40:55.803Z,95982.34
2022-09-15T06:43:42.235Z,95971.81
2022-09-15T06:46:30.772Z,95976.44
2022-09-15T06:49:16.638Z,95978.34
2022-09-15T06:52:02.667Z,95982.28
2022-09-15T06:54:49.289Z,95984.28
2022-09-15T06:57:34.733Z,95991.13
2022-09-15T07:00:20.205Z,96003.44
2022-09-15T07:03:06.008Z,95995.38
2022-09-15T07:05:51.680Z,95999.94
2022-09-15T07:08:37.054Z,95992.22
2022-09-15T07:11:22.745Z,95988.75
2022-09-15T07:14:08.431Z,95994.72
2022-09-15T07:16:53.865Z,95985.91
2022-09-15T07:19:41.201Z,95989.66
2022-09-15T07:22:26.696Z,95990.75
2022-09-15T07:25:12.106Z,95986.03
2022-09-15T07:27:57.517Z,95991.22
2022-09-15T07:30:44.168Z,95988.81
2022-09-15T07:33:29.581Z,95996.41
2022-09-15T07:36:15.424Z,95999.84
2022-09-15T07:39:00.739Z,96007.13
2022-09-15T07:41:46.005Z,96000.16
2022-09-15T07:44:31.253Z,96003.94
2022-09-15T07:47:16.798Z,96006.13
2022-09-15T07:50:02.456Z,96008.53
2022-09-15T07:52:47.853Z,96000.78
2022-09-15T07:55:33.220Z,96005.19
2022-09-15T07:58:19.249Z,96018.72
2022-09-15T08:01:06.346Z,96008.59
2022-09-15T08:03:54.063Z,96012.34
2022-09-15T08:06:39.259Z,96008.59
2022-09-15T08:09:24.656Z,96006.09
2022-09-15T08:12:10.009Z,96017.63
2022-09-15T08:14:55.511Z,96007.34
2022-09-15T08:17:40.797Z,96010.84
2022-09-15T08:20:26.302Z,96000.13
2022-09-15T08:23:11.617Z,96006.28
2022-09-15T08:25:57.053Z,96005.94
2022-09-15T08:28:42.930Z,96005.19
2022-09-15T08:31:28.656Z,96006.28
2022-09-15T08:34:16.510Z,96008.00
2022-09-15T08:37:02.189Z,96020.13
2022-09-15T08:39:48.178Z,96008.91
2022-09-15T08:42:33.959Z,95996.28
2022-09-15T08:45:35.040Z,95996.00
2022-09-15T08:48:27.585Z,96008.59
2022-09-15T08:51:26.313Z,96005.59
2022-09-15T08:54:16.705Z,96001.81
2022-09-15T08:57:04.798Z,95992.09
2022-09-15T08:59:50.157Z,96012.59
2022-09-15T09:02:58.567Z,96042.69
2022-09-15T09:05:45.610Z,96044.69
2022-09-15T09:09:04.186Z,96043.47
2022-09-15T09:12:26.893Z,96083.19
2022-09-15T09:15:39.516Z,96094.78
2022-09-15T09:19:16.374Z,96107.63
2022-09-15T09:22:23.832Z,96089.16
2022-09-15T09:25:27.230Z,96100.34
2022-09-15T09:28:38.085Z,96108.31
2022-09-15T09:31:25.752Z,96116.66
2022-09-15T09:34:47.279Z,96110.06
2022-09-15T09:37:33.569Z,96069.97
2022-09-15T09:40:20.112Z,96066.41
2022-09-15T09:43:05.580Z,96078.41
2022-09-15T09:45:51.861Z,96084.22
2022-09-15T09:48:36.903Z,96065.22
2022-09-15T09:51:38.258Z,96091.88
2022-09-15T09:54:27.270Z,96131.09
2022-09-15T09:57:28.730Z,96137.97
2022-09-15T10:00:35.947Z,96123.53
2022-09-15T10:03:22.864Z,96128.19
2022-09-15T10:06:19.719Z,96127.19
2022-09-15T10:09:18.194Z,96128.78
2022-09-15T10:12:04.988Z,96134.13
2022-09-15T10:14:54.799Z,96138.16
2022-09-15T10:17:42.107Z,96141.63
2022-09-15T10:20:40.626Z,96137.03
2022-09-15T10:23:29.853Z,96141.56
2022-09-15T10:26:15.497Z,96148.91
2022-09-15T10:29:12.817Z,96151.28
2022-09-15T10:32:21.704Z,96156.84
2022-09-15T10:35:15.835Z,96154.63
2022-09-15T10:38:20.025Z,96152.94
2022-09-15T10:41:29.302Z,96161.38
2022-09-15T10:44:35.882Z,96156.00
2022-09-15T10:47:37.540Z,96153.91
2022-09-15T10:50:55.257Z,96153.41
2022-09-15T10:53:57.524Z,96152.75
2022-09-15T10:56:48.863Z,96158.44
2022-09-15T10:59:51.610Z,96159.81
2022-09-15T11:02:55.722Z,96153.16
2022-09-15T11:05:46.475Z,96147.03
2022-09-15T11:09:06.919Z,96155.56
2022-09-15T11:11:55.209Z,96155.25
2022-09-15T11:14:47.240Z,96155.84
2022-09-15T11:18:07.829Z,96159.34
2022-09-15T11:21:21.557Z,96164.38
2022-09-15T11:24:17.384Z,96166.38
2022-09-15T11:27:14.314Z,96164.72
2022-09-15T11:30:18.806Z,96167.22
2022-09-15T11:33:13.236Z,96159.66
2022-09-15T11:36:06.669Z,96149.75
2022-09-15T11:38:59.124Z,96154.09
2022-09-15T11:41:56.603Z,96159.94
2022-09-15T11:44:45.155Z,96153.50
2022-09-15T11:47:30.543Z,96155.19
2022-09-15T11:50:19.107Z,96147.91
2022-09-15T11:53:27.808Z,96158.25
2022-09-15T11:56:48.910Z,96154.53
2022-09-15T12:00:07.168Z,96159.84
2022-09-15T12:03:26.377Z,96170.50
2022-09-15T12:06:21.649Z,96177.31
2022-09-15T12:09:11.815Z,96173.03
2022-09-15T12:12:06.918Z,96168.53
2022-09-15T12:14:52.921Z,96163.50
2022-09-15T12:18:01.331Z,96157.44
2022-09-15T12:20:56.440Z,96155.44
2022-09-15T12:23:52.186Z,96157.06
2022-09-15T12:26:38.558Z,96167.06
2022-09-15T12:29:27.090Z,96146.22
2022-09-15T12:32:25.143Z,96147.44
2022-09-15T12:35:16.517Z,96153.16
2022-09-15T12:38:02.161Z,96155.88
2022-09-15T12:40:58.120Z,96161.28
2022-09-15T12:43:53.134Z,96150.63
2022-09-15T12:46:38.689Z,96147.03
2022-09-15T12:49:31.817Z,96145.75
2022-09-15T12:52:20.789Z,96148.63
2022-09-15T12:55:06.354Z,96149.13
2022-09-15T12:57:55.220Z,96136.03
2022-09-15T13:01:00.688Z,96152.75
2022-09-15T13:03:49.524Z,96144.69
2022-09-15T13:06:34.944Z,96138.72
2022-09-15T13:09:28.665Z,96153.59
2022-09-15T13:12:18.982Z,96157.56
2022-09-15T13:15:13.648Z,96161.34
2022-09-15T13:18:03.741Z,96161.66
2022-09-15T13:20:54.552Z,96162.72
2022-09-15T13:23:43.668Z,96161.63
2022-09-15T13:26:31.797Z,96155.63
2022-09-15T13:29:18.880Z,96150.56
2022-09-15T13:32:19.424Z,96151.22
2022-09-15T13:35:28.301Z,96155.88
2022-09-15T13:38:32.606Z,96162.00
2022-09-15T13:41:33.317Z,96160.00
2022-09-15T13:44:46.358Z,96155.66
2022-09-15T13:47:31.726Z,96156.13
2022-09-15T13:50:34.313Z,96154.34
2022-09-15T13:53:47.490Z,96155.75
2022-09-15T13:56:38.448Z,96154.66
2022-09-15T13:59:28.530Z,96152.94
2022-09-15T14:02:14.889Z,96148.19
2022-09-15T14:05:00.402Z,96149.28
2022-09-15T14:07:55.775Z,96151.19
2022-09-15T14:11:06.853Z,96151.34
2022-09-15T14:13:52.501Z,96155.63
2022-09-15T14:16:39.335Z,96160.16
2022-09-15T14:19:34.419Z,96154.59
2022-09-15T14:22:33.886Z,96162.31
2022-09-15T14:25:20.664Z,96161.41
2022-09-15T14:28:07.391Z,96165.41
2022-09-15T14:30:53.422Z,96160.66
2022-09-15T14:33:40.622Z,96159.09
2022-09-15T14:36:29.979Z,96163.47
2022-09-15T14:39:22.719Z,96157.72
2022-09-15T14:42:19.017Z,96168.81
2022-09-15T14:48:26.893Z,96165.84
2022-09-15T14:51:28.659Z,96164.38
2022-09-15T14:54:32.917Z,96172.19
2022-09-15T14:57:25.557Z,96167.47
2022-09-15T15:00:19.168Z,96163.56
2022-09-15T15:03:32.333Z,96171.28
2022-09-15T15:06:30.273Z,96182.00
2022-09-15T15:09:26.435Z,96184.97
2022-09-15T15:12:37.439Z,96176.22
2022-09-15T15:15:23.175Z,96182.25
2022-09-15T15:18:32.045Z,96174.91
2022-09-15T15:21:31.280Z,96187.75
2022-09-15T15:24:19.687Z,96183.78
2022-09-15T15:27:38.549Z,96189.03
2022-09-15T15:30:30.817Z,96201.25
2022-09-15T15:33:25.048Z,96197.16
2022-09-15T15:36:12.042Z,96201.00
2022-09-15T15:39:00.559Z,96192.75
2022-09-15T15:41:46.263Z,96191.69
2022-09-15T15:44:32.491Z,96188.50
2022-09-15T15:47:17.988Z,96193.34
2022-09-15T15:50:21.729Z,96199.25
2022-09-15T15:53:07.128Z,96200.84
2022-09-15T15:55:55.099Z,96215.38
2022-09-15T15:58:40.383Z,96220.19
2022-09-15T16:01:25.797Z,96225.69
2022-09-15T16:04:12.190Z,96223.50
2022-09-15T16:06:57.583Z,96226.91
2022-09-15T16:09:43.898Z,96238.13
2022-09-15T16:12:31.941Z,96243.16
2022-09-15T16:15:21.512Z,96247.75
2022-09-15T16:18:06.747Z,96245.34
2022-09-15T16:20:53.821Z,96246.13
2022-09-15T16:23:39.397Z,96242.16
2022-09-15T16:26:25.252Z,96238.75
2022-09-15T16:29:11.794Z,96241.66
2022-09-15T16:31:57.338Z,96234.41
2022-09-15T16:34:42.689Z,96248.53
2022-09-15T16:37:28.032Z,96239.50
2022-09-15T16:40:13.450Z,96250.44
2022-09-15T16:42:58.920Z,96251.81
2022-09-15T16:45:45.062Z,96249.16
2022-09-15T16:48:30.476Z,96255.78
2022-09-15T16:51:29.942Z,96265.19
2022-09-15T16:54:19.134Z,96253.41
2022-09-15T16:57:04.857Z,96254.00
2022-09-15T16:59:50.101Z,96259.91
2022-09-15T17:02:35.505Z,96262.88
2022-09-15T17:05:32.743Z,96260.28
2022-09-15T17:08:21.274Z,96270.22
2022-09-15T17:11:16.229Z,96271.06
2022-09-15T17:14:03.092Z,96277.56
2022-09-15T17:16:52.725Z,96276.81
2022-09-15T17:19:38.111Z,96282.44
2022-09-15T17:22:23.406Z,96281.13
2022-09-15T17:25:27.045Z,96289.16
2022-09-15T17:28:12.760Z,96295.03
2022-09-15T17:31:12.085Z,96296.19
2022-09-15T17:33:57.334Z,96305.81
2022-09-15T17:36:42.639Z,96308.78
2022-09-15T17:39:28.076Z,96307.47
2022-09-15T17:42:13.477Z,96309.91
2022-09-15T17:44:59.107Z,96312.06
2022-09-15T17:47:45.074Z,96317.69
2022-09-15T17:50:33.071Z,96314.25
2022-09-15T17:53:24.114Z,96315.63
2022-09-15T17:56:09.747Z,96319.41
2022-09-15T17:58:55.173Z,96315.19
2022-09-15T18:01:40.846Z,96323.25
2022-09-15T18:04:26.099Z,96336.63
2022-09-15T18:07:12.251Z,96338.00
2022-09-15T18:09:58.078Z,96339.38
2022-09-15T18:12:46.852Z,96341.06
2022-09-15T18:15:35.333Z,96345.63
2022-09-15T18:18:26.307Z,96347.50
2022-09-15T18:21:25.186Z,96349.44
2022-09-15T18:24:14.886Z,96358.78
2022-09-15T18:27:00.467Z,96362.00
2022-09-15T18:29:46.037Z,96368.69
2022-09-15T18:32:33.102Z,96368.44
2022-09-15T18:35:20.641Z,96369.00
2022-09-15T18:38:06.552Z,96380.19
2022-09-15T18:40:55.458Z,96378.34
2022-09-15T18:43:40.911Z,96380.22
2022-09-15T18:46:26.612Z,96383.69
2022-09-15T18:49:11.675Z,96390.34
2022-09-15T18:51:57.126Z,96387.69
2022-09-15T18:54:42.359Z,96385.56
2022-09-15T18:57:28.466Z,96391.41
2022-09-15T19:00:16.886Z,96394.88
2022-09-15T19:03:05.302Z,96397.81
2022-09-15T19:05:51.019Z,96398.31
2022-09-15T19:08:37.079Z,96406.84
2022-09-15T19:11:22.781Z,96413.78
2022-09-15T19:14:08.217Z,96411.38
2022-09-15T19:16:58.209Z,96407.88
2022-09-15T19:19:46.423Z,96418.81
2022-09-15T19:22:32.217Z,96414.84
2022-09-15T19:25:17.962Z,96415.13
2022-09-15T19:28:03.770Z,96418.84
2022-09-15T19:30:49.612Z,96421.28
2022-09-15T19:33:35.174Z,96426.88
2022-09-15T19:36:28.986Z,96426.06
2022-09-15T19:39:14.871Z,96431.94
2022-09-15T19:42:00.494Z,96431.16
2022-09-15T19:44:47.793Z,96427.94
2022-09-15T19:47:33.591Z,96429.00
2022-09-15T19:50:19.311Z,96429.56
2022-09-15T19:53:04.743Z,96422.91
2022-09-15T19:55:51.968Z,96419.97
2022-09-15T19:58:37.602Z,96421.28
2022-09-15T20:01:24.286Z,96421.31
2022-09-15T20:07:14.244Z,96428.78
2022-09-15T20:09:59.694Z,96429.88
2022-09-15T20:12:44.979Z,96436.25
2022-09-15T20:15:30.453Z,96429.63
2022-09-15T20:18:17.336Z,96439.47
2022-09-15T20:21:07.271Z,96441.63
2022-09-15T20:23:52.828Z,96450.66
2022-09-15T20:26:38.170Z,96457.34
2022-09-15T20:29:23.897Z,96453.34
2022-09-15T20:32:09.571Z,96459.22
2022-09-15T20:34:55.875Z,96458.66
2022-09-15T20:37:41.858Z,96455.47
2022-09-15T20:40:27.369Z,96458.16
2022-09-15T20:43:12.674Z,96456.25
2022-09-15T20:46:03.128Z,96461.09
2022-09-15T20:48:50.421Z,96462.94
2022-09-15T20:51:36.123Z,96470.16
2022-09-15T20:54:21.652Z,96472.03
2022-09-15T20:57:07.225Z,96476.81
2022-09-15T20:59:52.896Z,96483.50
2022-09-15T21:02:39.155Z,96482.41
2022-09-15T21:05:24.639Z,96485.06
2022-09-15T21:08:10.917Z,96477.34
2022-09-15T21:10:58.984Z,96481.63
2022-09-15T21:13:44.537Z,96495.47
2022-09-15T21:16:30.506Z,96497.06
2022-09-15T21:19:16.183Z,96497.06
2022-09-15T21:22:01.642Z,96496.81
2022-09-15T21:24:47.153Z,96501.03
2022-09-15T21:27:32.428Z,96510.34
2022-09-15T21:30:17.915Z,96516.22
2022-09-15T21:33:03.509Z,96519.41
2022-09-15T21:35:49.277Z,96520.72
2022-09-15T21:38:36.416Z,96510.88
2022-09-15T21:41:24.553Z,96516.75
2022-09-15T21:44:11.179Z,96508.75
2022-09-15T21:46:56.660Z,96510.88
2022-09-15T21:49:42.225Z,96506.84
2022-09-15T21:52:27.914Z,96507.66
2022-09-15T21:55:13.284Z,96497.50
2022-09-15T21:57:58.661Z,96492.19
2022-09-15T22:00:44.126Z,96496.13
2022-09-15T22:03:30.230Z,96497.44
2022-09-15T22:06:16.854Z,96504.91
2022-09-15T22:09:05.532Z,96501.16
2022-09-15T22:11:51.229Z,96510.72
2022-09-15T22:14:36.686Z,96506.97
2022-09-15T22:17:22.117Z,96513.59
2022-09-15T22:20:09.367Z,96515.19
2022-09-15T22:23:01.217Z,96523.94
2022-09-15T22:25:46.831Z,96528.97
2022-09-15T22:28:32.382Z,96529.75
2022-09-15T22:31:19.714Z,96527.88
2022-09-15T22:34:05.324Z,96532.91
2022-09-15T22:36:51.016Z,96523.81
2022-09-15T22:39:57.750Z,96530.22
2022-09-15T22:42:41.777Z,96530.97
2022-09-15T22:45:27.073Z,96529.38
2022-09-15T22:48:12.471Z,96535.75
2022-09-15T22:50:58.875Z,96538.41
2022-09-15T22:53:44.439Z,96537.59
2022-09-15T22:56:30.303Z,96533.63
2022-09-15T22:59:17.037Z,96541.91
2022-09-15T23:02:02.636Z,96528.09
2022-09-15T23:04:47.817Z,96527.03
2022-09-15T23:07:34.538Z,96512.97
2022-09-15T23:10:19.926Z,96520.13
2022-09-15T23:13:05.564Z,96519.31
2022-09-15T23:15:51.293Z,96514.28
2022-09-15T23:18:37.023Z,96527.03
2022-09-15T23:21:22.845Z,96523.59
2022-09-15T23:24:08.820Z,96523.31
2022-09-15T23:26:54.445Z,96523.88
2022-09-15T23:29:40.033Z,96523.88
2022-09-15T23:32:25.441Z,96525.47
2022-09-15T23:35:10.885Z,96523.88
2022-09-15T23:37:56.310Z,96520.16
2022-09-15T23:40:42.845Z,96521.22
2022-09-15T23:43:28.184Z,96522.25
2022-09-15T23:46:14.046Z,96516.94
2022-09-15T23:48:59.949Z,96525.97
2022-09-15T23:51:45.482Z,96525.97
2022-09-15T23:54:31.131Z,96517.22
2022-09-15T23:57:16.380Z,96518.28
